AQQ10 IFIS: Internet Flight Information System
logo dgac
Viernes 01 de Julio del 2022
Buscar por aerodromo o helipuerto
Ingrese nombre de aeródromo, localidad o designador OACI:
METAR del 01-07-2022 a las 14:00 UTC
Para mayor información visite www.meteochile.cl
METAR SCAT 011400Z 10005KT 070V130 9999 OVC017 12/08 Q1020
Viento: dirección 100 grados, velocidad 5 nudos
Viento con dirección variable entre 070 y 130 grados
Visibilidad: 10 km o más
Nubes: Cubierto a 1700 pies sobre el nivel del aeródromo
Temperatura: 12 °C
Rocío: 8 °C
Humedad_relativa: 77%
Presión: 1020 hPa
METAR del 01-07-2022 a las 13:00 UTC
Para mayor información visite www.meteochile.cl
METAR SCAT 011300Z 00000KT 9999 OVC016 12/08 Q1020
Visibilidad: 10 km o más
Nubes: Cubierto a 1600 pies sobre el nivel del aeródromo
Temperatura: 12 °C
Rocío: 8 °C
Humedad_relativa: 77%
Presión: 1020 hPa
METAR del 01-07-2022 a las 12:00 UTC
Para mayor información visite www.meteochile.cl
METAR SCAT 011200Z 28005KT 240V310 9999 OVC015 12/08 Q1019
Viento: dirección 280 grados, velocidad 5 nudos
Viento con dirección variable entre 240 y 310 grados
Visibilidad: 10 km o más
Nubes: Cubierto a 1500 pies sobre el nivel del aeródromo
Temperatura: 12 °C
Rocío: 8 °C
Humedad_relativa: 77%
Presión: 1019 hPa
METAR del 01-07-2022 a las 11:00 UTC
Para mayor información visite www.meteochile.cl
METAR SCAT 011100Z AUTO 33003KT 280V080 9999 OVC016/// 12/08 Q1018
Viento: dirección 330 grados, velocidad 3 nudos
Viento con dirección variable entre 280 y 080 grados
Visibilidad: 10 km o más
Nubes: Cubierto a 1600 pies sobre el nivel del aeródromo, Tipo de nubes no disponible
Temperatura: 12 °C
Rocío: 8 °C
Humedad_relativa: 77%
Presión: 1018 hPa
METAR del 01-07-2022 a las 10:00 UTC
Para mayor información visite www.meteochile.cl
METAR SCAT 011000Z AUTO 00000KT 9999 OVC016/// 12/08 Q1016
Visibilidad: 10 km o más
Nubes: Cubierto a 1600 pies sobre el nivel del aeródromo, Tipo de nubes no disponible
Temperatura: 12 °C
Rocío: 8 °C
Humedad_relativa: 77%
Presión: 1016 hPa
METAR del 01-07-2022 a las 09:00 UTC
Para mayor información visite www.meteochile.cl
METAR SCAT 010900Z 15003KT 100V260 9999 OVC017 12/09 Q1017
Viento: dirección 150 grados, velocidad 3 nudos
Viento con dirección variable entre 100 y 260 grados
Visibilidad: 10 km o más
Nubes: Cubierto a 1700 pies sobre el nivel del aeródromo
Temperatura: 12 °C
Rocío: 9 °C
Humedad_relativa: 82%
Presión: 1017 hPa
METAR del 01-07-2022 a las 08:00 UTC
Para mayor información visite www.meteochile.cl
METAR SCAT 010800Z 25003KT 220V300 9999 OVC017 12/09 Q1017
Viento: dirección 250 grados, velocidad 3 nudos
Viento con dirección variable entre 220 y 300 grados
Visibilidad: 10 km o más
Nubes: Cubierto a 1700 pies sobre el nivel del aeródromo
Temperatura: 12 °C
Rocío: 9 °C
Humedad_relativa: 82%
Presión: 1017 hPa
METAR del 01-07-2022 a las 07:00 UTC
Para mayor información visite www.meteochile.cl
METAR SCAT 010700Z 11005KT 060V130 9999 OVC017 12/09 Q1017
Viento: dirección 110 grados, velocidad 5 nudos
Viento con dirección variable entre 060 y 130 grados
Visibilidad: 10 km o más
Nubes: Cubierto a 1700 pies sobre el nivel del aeródromo
Temperatura: 12 °C
Rocío: 9 °C
Humedad_relativa: 82%
Presión: 1017 hPa
METAR del 01-07-2022 a las 06:00 UTC
Para mayor información visite www.meteochile.cl
METAR SCAT 010600Z VRB02KT 9999 OVC017 12/08 Q1018
Viento: dirección variable, velocidad 2 nudos
Visibilidad: 10 km o más
Nubes: Cubierto a 1700 pies sobre el nivel del aeródromo
Temperatura: 12 °C
Rocío: 8 °C
Humedad_relativa: 77%
Presión: 1018 hPa
METAR del 01-07-2022 a las 05:00 UTC
Para mayor información visite www.meteochile.cl
METAR SCAT 010500Z 25006KT 9999 OVC017 12/09 Q1018
Viento: dirección 250 grados, velocidad 6 nudos
Visibilidad: 10 km o más
Nubes: Cubierto a 1700 pies sobre el nivel del aeródromo
Temperatura: 12 °C
Rocío: 9 °C
Humedad_relativa: 82%
Presión: 1018 hPa